Time;durP1;ratioP1;P1;durP2;ratioP2;P2;SDS_P1;SDS_P2;PMS_P1;PMS_P2;Temp;Humidity;BMP_temperature;BMP_pressure;BME280_temperature;BME280_humidity;BME280_pressure;Samples;Min_cycle;Max_cycle;Signal;HPM_P1;HPM_P2
2022/06/10 00:01:25;;;;;;;6.10;2.60;;;12.40;99.90;;;;;;5060668;28;20266;-95
2022/06/10 00:03:51;;;;;;;6.83;2.60;;;12.40;99.90;;;;;;5060012;28;20172;-94
2022/06/10 00:06:16;;;;;;;7.07;2.50;;;12.30;99.90;;;;;;5059542;28;20203;-95
2022/06/10 00:08:45;;;;;;;5.50;2.70;;;12.50;99.90;;;;;;5060509;28;20171;-94
2022/06/10 00:11:20;;;;;;;6.43;2.70;;;12.20;99.90;;;;;;5060646;28;20149;-95
2022/06/10 00:13:47;;;;;;;5.53;2.60;;;12.20;99.90;;;;;;5060284;28;20156;-94
2022/06/10 00:16:20;;;;;;;3.57;2.57;;;12.00;99.90;;;;;;5060376;28;20219;-94
2022/06/10 00:18:52;;;;;;;3.90;2.73;;;11.90;99.90;;;;;;5060509;28;20172;-94
2022/06/10 00:21:21;;;;;;;5.70;2.80;;;12.20;99.90;;;;;;5060098;28;20198;-92
2022/06/10 00:23:46;;;;;;;3.23;2.93;;;12.20;99.90;;;;;;5060418;28;20205;-94
2022/06/10 00:26:13;;;;;;;3.03;2.33;;;12.10;99.90;;;;;;5059888;28;20263;-94
2022/06/10 00:28:43;;;;;;;2.70;2.40;;;12.10;99.90;;;;;;5060659;28;20192;-94
2022/06/10 00:31:13;;;;;;;3.33;2.87;;;11.60;99.90;;;;;;5060689;28;20152;-94
2022/06/10 00:33:41;;;;;;;5.40;2.87;;;12.00;99.90;;;;;;5060981;28;20174;-94
2022/06/10 00:36:10;;;;;;;3.63;2.90;;;12.10;99.90;;;;;;5060577;28;20267;-94
2022/06/10 00:38:39;;;;;;;4.53;2.60;;;12.00;99.90;;;;;;5060154;28;20145;-95
2022/06/10 00:41:05;;;;;;;4.77;2.83;;;12.40;99.90;;;;;;5059879;28;20195;-95
2022/06/10 00:43:33;;;;;;;2.80;2.60;;;12.10;99.90;;;;;;5044005;22;20236;-76
2022/06/10 00:46:20;;;;;;;7.23;2.77;;;12.00;99.90;;;;;;5019914;28;20220;-76
2022/06/10 00:49:07;;;;;;;4.70;2.80;;;12.00;99.90;;;;;;5020485;28;20200;-76
2022/06/10 00:51:42;;;;;;;3.63;2.80;;;11.90;99.90;;;;;;5019458;28;20176;-75
2022/06/10 00:54:23;;;;;;;4.03;3.20;;;11.90;99.90;;;;;;5019475;28;20570;-76
2022/06/10 00:56:58;;;;;;;3.97;3.10;;;11.80;99.90;;;;;;5038010;28;20156;-75
2022/06/10 00:59:29;;;;;;;6.70;3.33;;;11.80;99.90;;;;;;5019987;28;20642;-76
2022/06/10 01:02:02;;;;;;;5.57;3.00;;;11.90;99.90;;;;;;5037434;28;20193;-75
2022/06/10 01:04:28;;;;;;;3.73;3.13;;;11.90;99.90;;;;;;5037900;28;20188;-75
2022/06/10 01:06:55;;;;;;;5.20;3.10;;;11.90;99.90;;;;;;5019746;28;20180;-75
2022/06/10 01:09:21;;;;;;;4.33;3.33;;;11.90;99.90;;;;;;5037230;28;20542;-76
2022/06/10 01:12:05;;;;;;;4.37;3.00;;;11.90;99.90;;;;;;5038174;28;20299;-76
2022/06/10 01:14:56;;;;;;;8.03;3.47;;;11.80;99.90;;;;;;5019415;28;20200;-75
2022/06/10 01:17:43;;;;;;;5.47;3.10;;;11.80;99.90;;;;;;5019403;28;20168;-75
2022/06/10 01:20:39;;;;;;;4.30;3.23;;;11.80;99.90;;;;;;5036595;28;20529;-76
2022/06/10 01:23:36;;;;;;;6.27;3.37;;;11.70;99.90;;;;;;5018161;28;20164;-76
2022/06/10 01:27:47;;;;;;;4.17;3.27;;;11.80;99.90;;;;;;5036809;28;20219;-75
2022/06/10 01:29:50;;;;;;;5.93;3.63;;;11.80;99.90;;;;;;5036045;28;20259;-75
2022/06/10 01:32:32;;;;;;;9.10;3.60;;;11.70;99.90;;;;;;5036726;28;20165;-76
2022/06/10 01:35:03;;;;;;;5.83;3.83;;;11.70;99.90;;;;;;5018341;28;20196;-75
2022/06/10 01:37:40;;;;;;;3.90;3.50;;;11.70;99.90;;;;;;5035957;28;20180;-75
2022/06/10 01:40:21;;;;;;;6.47;4.07;;;11.70;99.90;;;;;;5018692;28;20175;-75
2022/06/10 01:43:10;;;;;;;9.50;3.93;;;11.70;99.90;;;;;;5018342;28;20283;-75
2022/06/10 01:45:47;;;;;;;6.70;4.30;;;11.60;99.90;;;;;;5036139;28;20605;-75
2022/06/10 01:48:23;;;;;;;7.83;3.70;;;11.60;99.90;;;;;;5036241;28;20159;-75
2022/06/10 01:51:07;;;;;;;8.77;4.00;;;11.60;99.90;;;;;;5019808;28;20164;-76
2022/06/10 01:53:44;;;;;;;6.60;4.20;;;11.60;99.90;;;;;;5019516;28;20693;-76
2022/06/10 01:56:22;;;;;;;7.77;4.17;;;11.60;99.90;;;;;;5017973;28;20206;-76
2022/06/10 01:58:56;;;;;;;7.20;4.57;;;11.50;99.90;;;;;;5036816;28;20160;-76
2022/06/10 02:01:32;;;;;;;5.73;4.17;;;11.50;99.90;;;;;;5035976;28;20250;-76
2022/06/10 02:04:07;;;;;;;7.27;4.30;;;11.50;99.90;;;;;;5018017;28;20630;-76
2022/06/10 02:06:39;;;;;;;7.17;4.63;;;11.50;99.90;;;;;;5036953;28;20156;-76
2022/06/10 02:09:15;;;;;;;6.40;4.43;;;11.50;99.90;;;;;;5018419;28;20538;-76
2022/06/10 02:11:46;;;;;;;7.43;4.70;;;11.50;99.90;;;;;;5036218;28;20563;-75
2022/06/10 02:14:29;;;;;;;5.03;4.40;;;11.50;99.90;;;;;;5035299;28;20156;-75
2022/06/10 02:16:57;;;;;;;7.07;5.80;;;11.40;99.90;;;;;;5036686;28;20167;-76
2022/06/10 02:19:30;;;;;;;6.33;4.83;;;11.40;99.90;;;;;;5018692;28;20172;-76
2022/06/10 02:22:07;;;;;;;8.87;4.80;;;11.40;99.90;;;;;;5037091;28;20180;-75
2022/06/10 02:27:11;;;;;;;7.63;4.67;;;11.40;99.90;;;;;;5055062;22;20263;-77
2022/06/10 02:29:54;;;;;;;8.77;4.40;;;11.30;99.90;;;;;;5049709;28;20170;-77
2022/06/10 02:32:20;;;;;;;8.60;5.07;;;11.30;99.90;;;;;;5033803;28;20171;-77
2022/06/10 02:34:45;;;;;;;5.40;4.87;;;11.30;99.90;;;;;;5033727;28;20176;-77
2022/06/10 02:37:46;;;;;;;12.90;5.53;;;11.30;99.90;;;;;;5032229;28;20267;-77
2022/06/10 02:40:33;;;;;;;8.17;5.10;;;11.30;99.90;;;;;;5031621;28;20192;-76
2022/06/10 02:43:13;;;;;;;8.50;5.93;;;11.40;99.90;;;;;;5032984;28;20180;-76
2022/06/10 02:45:51;;;;;;;6.53;5.70;;;11.40;99.90;;;;;;5031635;28;20700;-76
2022/06/10 02:48:32;;;;;;;8.50;6.00;;;11.40;99.90;;;;;;5033353;28;20654;-76
2022/06/10 02:50:57;;;;;;;6.93;6.23;;;11.40;99.90;;;;;;5033136;28;20542;-76
2022/06/10 02:53:23;;;;;;;8.87;5.53;;;11.50;99.90;;;;;;5032933;28;20184;-77
2022/06/10 02:55:49;;;;;;;9.43;5.47;;;11.50;99.90;;;;;;5032841;28;20207;-76
2022/06/10 03:01:26;;;;;;;9.20;5.17;;;11.40;99.90;;;;;;5033079;28;20234;-77
2022/06/10 03:04:21;;;;;;;6.90;5.47;;;11.40;99.90;;;;;;5033085;28;20549;-75
2022/06/10 03:06:56;;;;;;;8.30;6.43;;;11.40;99.90;;;;;;5031511;28;20192;-76
2022/06/10 03:10:03;;;;;;;9.77;6.20;;;11.40;99.90;;;;;;5031577;28;20168;-76
2022/06/10 03:12:53;;;;;;;8.43;6.17;;;11.50;99.90;;;;;;5032878;28;20169;-77
2022/06/10 03:15:27;;;;;;;11.80;6.83;;;11.50;99.90;;;;;;5036205;28;20246;-77
2022/06/10 03:18:08;;;;;;;8.00;6.57;;;11.50;99.90;;;;;;5037074;28;20558;-77
2022/06/10 03:20:59;;;;;;;9.67;6.00;;;11.50;99.90;;;;;;5036824;28;20184;-77
2022/06/10 03:23:45;;;;;;;6.47;5.53;;;11.40;99.90;;;;;;5036737;28;20157;-76
2022/06/10 03:26:32;;;;;;;8.77;6.47;;;11.50;99.90;;;;;;5034995;28;20748;-76
2022/06/10 03:29:16;;;;;;;12.80;6.33;;;11.40;99.90;;;;;;5036415;28;20168;-77
2022/06/10 03:31:50;;;;;;;12.47;5.77;;;11.40;99.90;;;;;;5036687;28;20165;-77
2022/06/10 03:34:25;;;;;;;7.00;5.57;;;11.40;99.90;;;;;;5034625;28;20164;-78
2022/06/10 03:36:52;;;;;;;11.63;6.30;;;11.30;99.90;;;;;;5035829;28;20196;-76
2022/06/10 03:39:21;;;;;;;11.47;5.83;;;11.40;99.90;;;;;;5036204;28;20182;-76
2022/06/10 03:42:12;;;;;;;8.20;5.40;;;11.30;99.90;;;;;;5035815;28;20275;-77
2022/06/10 03:44:38;;;;;;;10.33;5.97;;;11.30;99.90;;;;;;5034103;28;20168;-76
2022/06/10 03:47:06;;;;;;;8.40;5.73;;;11.20;99.90;;;;;;5036030;28;20219;-76
2022/06/10 03:49:49;;;;;;;11.07;5.70;;;11.30;99.90;;;;;;5034957;28;20541;-76
2022/06/10 03:52:20;;;;;;;6.37;5.73;;;11.20;99.90;;;;;;5036294;28;20161;-76
2022/06/10 03:54:46;;;;;;;7.97;5.97;;;11.20;99.90;;;;;;5034588;28;20161;-76
2022/06/10 03:57:13;;;;;;;5.50;4.93;;;11.20;99.90;;;;;;5035826;28;20172;-76
2022/06/10 03:59:39;;;;;;;10.77;6.27;;;11.20;99.90;;;;;;5034498;28;20189;-77
2022/06/10 04:02:04;;;;;;;14.07;6.10;;;11.20;99.90;;;;;;5034448;28;20200;-76
2022/06/10 04:04:30;;;;;;;13.03;5.83;;;11.20;99.90;;;;;;5034482;28;20178;-76
2022/06/10 04:06:55;;;;;;;10.63;6.13;;;11.20;99.90;;;;;;5035661;28;20250;-77
2022/06/10 04:09:21;;;;;;;9.40;5.77;;;11.20;99.90;;;;;;5035254;28;20695;-76
2022/06/10 04:11:46;;;;;;;6.73;6.03;;;11.20;99.90;;;;;;5035526;28;20173;-75
2022/06/10 04:14:12;;;;;;;8.17;5.97;;;11.20;99.90;;;;;;5035496;28;20259;-76
2022/06/10 04:16:37;;;;;;;10.30;6.20;;;11.20;99.90;;;;;;5035498;28;20200;-76
2022/06/10 04:19:03;;;;;;;14.97;6.73;;;11.20;99.90;;;;;;5034161;28;20225;-76
2022/06/10 04:21:29;;;;;;;6.63;5.67;;;11.20;99.90;;;;;;5035342;28;20193;-76
2022/06/10 04:23:54;;;;;;;7.97;6.27;;;11.30;99.90;;;;;;5035634;28;20660;-75
2022/06/10 04:26:20;;;;;;;7.30;6.60;;;11.30;99.90;;;;;;5034350;28;20207;-76
2022/06/10 04:28:47;;;;;;;7.17;6.40;;;11.40;99.90;;;;;;5035519;28;20251;-75
2022/06/10 04:31:13;;;;;;;12.77;6.97;;;11.50;99.90;;;;;;5033917;28;20176;-76
2022/06/10 04:33:39;;;;;;;9.07;7.07;;;11.60;99.90;;;;;;5035063;28;20187;-75
2022/06/10 04:36:05;;;;;;;10.83;7.37;;;11.60;99.90;;;;;;5035011;28;20702;-75
2022/06/10 04:38:30;;;;;;;12.77;8.27;;;11.70;99.90;;;;;;5035065;28;20187;-76
2022/06/10 04:40:56;;;;;;;10.30;7.90;;;11.80;99.90;;;;;;5033720;28;20346;-76
2022/06/10 04:43:22;;;;;;;10.10;8.40;;;11.90;99.90;;;;;;5033696;28;20172;-74
2022/06/10 04:45:51;;;;;;;16.40;8.67;;;12.00;99.90;;;;;;5035079;28;20271;-75
2022/06/10 04:48:17;;;;;;;17.03;8.43;;;12.10;99.90;;;;;;5035122;28;20168;-76
2022/06/10 04:50:44;;;;;;;11.10;8.60;;;12.10;99.90;;;;;;5034147;28;20176;-76
2022/06/10 04:53:11;;;;;;;13.87;8.50;;;12.30;99.90;;;;;;5032971;28;20738;-76
2022/06/10 04:55:36;;;;;;;13.17;8.43;;;12.30;99.90;;;;;;5034669;28;20562;-76
2022/06/10 04:58:04;;;;;;;11.90;8.03;;;12.40;99.90;;;;;;5034704;28;20172;-76
2022/06/10 05:00:34;;;;;;;10.73;8.27;;;12.50;99.90;;;;;;5034557;28;20180;-76
2022/06/10 05:03:01;;;;;;;15.83;8.37;;;12.60;99.90;;;;;;5034627;28;20661;-75
2022/06/10 05:05:26;;;;;;;15.03;8.80;;;12.70;99.90;;;;;;5034439;28;20662;-76
2022/06/10 05:07:52;;;;;;;17.07;8.50;;;12.80;99.90;;;;;;5033297;28;20263;-75
2022/06/10 05:10:19;;;;;;;11.83;7.37;;;12.80;99.90;;;;;;5034485;28;20184;-75
2022/06/10 05:12:44;;;;;;;14.93;7.90;;;12.90;99.90;;;;;;5034379;28;20271;-75
2022/06/10 05:15:12;;;;;;;16.20;8.40;;;12.90;99.90;;;;;;5033020;28;20681;-75
2022/06/10 05:17:38;;;;;;;11.80;7.73;;;13.00;99.90;;;;;;5034574;28;20199;-75
2022/06/10 05:20:04;;;;;;;12.07;8.07;;;13.00;99.90;;;;;;5034255;28;20230;-76
2022/06/10 05:22:29;;;;;;;12.27;7.77;;;13.10;99.90;;;;;;5032874;28;20298;-77
2022/06/10 05:24:55;;;;;;;13.00;7.13;;;13.20;99.90;;;;;;5032640;28;20188;-75
2022/06/10 05:27:20;;;;;;;10.07;6.60;;;13.20;99.90;;;;;;5034411;28;20168;-76
2022/06/10 05:29:46;;;;;;;10.63;6.97;;;13.20;99.90;;;;;;5034089;28;20187;-75
2022/06/10 05:32:11;;;;;;;14.87;7.70;;;13.30;99.90;;;;;;5032783;28;20176;-76
2022/06/10 05:34:47;;;;;;;14.27;7.97;;;13.30;99.90;;;;;;5033891;28;20184;-76
2022/06/10 05:37:19;;;;;;;12.90;7.63;;;13.40;99.90;;;;;;5031927;28;20180;-76
2022/06/10 05:39:46;;;;;;;16.60;7.63;;;13.40;99.90;;;;;;5032692;28;20175;-76
2022/06/10 05:42:12;;;;;;;11.40;6.97;;;13.50;99.90;;;;;;5032518;28;20338;-76
2022/06/10 05:44:44;;;;;;;11.37;7.40;;;13.50;99.90;;;;;;5033990;28;20198;-73
2022/06/10 05:47:13;;;;;;;11.77;7.63;;;13.60;99.90;;;;;;5034010;28;20160;-76
2022/06/10 05:49:41;;;;;;;13.27;7.43;;;13.60;99.90;;;;;;5032406;28;20562;-76
2022/06/10 05:52:07;;;;;;;12.10;7.53;;;13.60;99.90;;;;;;5033917;28;20184;-74
2022/06/10 05:54:34;;;;;;;9.30;6.77;;;13.70;99.90;;;;;;5032342;28;20180;-75
2022/06/10 05:57:00;;;;;;;12.03;7.40;;;13.70;99.90;;;;;;5033442;28;20736;-75
2022/06/10 05:59:29;;;;;;;11.60;7.63;;;13.80;99.90;;;;;;5033530;28;20204;-75
2022/06/10 06:01:56;;;;;;;12.33;6.43;;;13.80;99.90;;;;;;5033679;28;20192;-75
2022/06/10 06:04:21;;;;;;;12.07;7.50;;;13.80;99.90;;;;;;5033712;28;20638;-75
2022/06/10 06:06:47;;;;;;;14.37;7.17;;;13.90;99.90;;;;;;5032064;28;20192;-74
2022/06/10 06:09:14;;;;;;;12.60;7.13;;;13.90;99.90;;;;;;5033618;28;20630;-74
2022/06/10 06:11:40;;;;;;;10.07;7.30;;;14.00;99.90;;;;;;5033557;28;20259;-74
2022/06/10 06:14:06;;;;;;;12.30;6.80;;;14.00;99.90;;;;;;5032040;28;20180;-74
2022/06/10 06:16:32;;;;;;;11.13;6.13;;;14.10;99.90;;;;;;5033487;28;20284;-75
2022/06/10 06:18:57;;;;;;;9.70;6.97;;;14.10;99.90;;;;;;5033553;28;20218;-74
2022/06/10 06:21:23;;;;;;;8.73;6.03;;;14.20;99.90;;;;;;5033215;28;20192;-75
2022/06/10 06:23:49;;;;;;;13.03;6.13;;;14.20;99.90;;;;;;5032152;28;20647;-74
2022/06/10 06:26:15;;;;;;;10.33;5.50;;;14.30;99.90;;;;;;5033113;28;20230;-74
2022/06/10 06:28:42;;;;;;;9.67;5.70;;;14.40;99.90;;;;;;5033203;28;20649;-74
2022/06/10 06:31:08;;;;;;;13.13;6.20;;;14.50;99.90;;;;;;5033217;28;20179;-75
2022/06/10 06:33:34;;;;;;;11.60;6.17;;;14.50;99.90;;;;;;5033419;28;20177;-74
2022/06/10 06:36:00;;;;;;;9.93;4.97;;;14.60;99.90;;;;;;5032981;28;20196;-74
2022/06/10 06:38:27;;;;;;;10.43;5.63;;;14.60;99.90;;;;;;5033025;28;20222;-74
2022/06/10 06:40:52;;;;;;;9.43;5.23;;;14.70;99.90;;;;;;5032186;28;20206;-74
2022/06/10 06:43:18;;;;;;;10.20;5.07;;;14.70;99.90;;;;;;5032907;28;20172;-74
2022/06/10 06:45:43;;;;;;;7.67;4.40;;;14.80;99.90;;;;;;5031654;28;20196;-73
2022/06/10 06:48:10;;;;;;;9.83;4.60;;;14.90;99.90;;;;;;5032950;28;20174;-74
2022/06/10 06:50:42;;;;;;;9.70;4.27;;;14.90;99.90;;;;;;5035577;28;20266;-74
2022/06/10 06:53:08;;;;;;;10.90;3.97;;;15.00;99.90;;;;;;5037377;28;20180;-75
2022/06/10 06:55:35;;;;;;;8.00;4.43;;;15.10;99.90;;;;;;5037664;28;20704;-75
2022/06/10 06:58:02;;;;;;;9.27;4.20;;;15.10;99.90;;;;;;5036903;28;20167;-74
2022/06/10 07:00:28;;;;;;;12.30;3.80;;;15.20;99.90;;;;;;5035590;28;20203;-75
2022/06/10 07:02:53;;;;;;;11.47;3.90;;;15.20;99.90;;;;;;5037147;28;20279;-74
2022/06/10 07:05:19;;;;;;;7.50;3.30;;;15.30;99.90;;;;;;5036717;28;20204;-75
2022/06/10 07:07:44;;;;;;;7.37;3.20;;;15.30;99.90;;;;;;5036771;28;20204;-74
2022/06/10 07:10:16;;;;;;;9.27;3.17;;;15.40;99.90;;;;;;5036720;28;20234;-74
2022/06/10 07:12:41;;;;;;;8.63;3.33;;;15.50;99.90;;;;;;5035376;28;20180;-74
2022/06/10 07:15:08;;;;;;;10.73;3.00;;;15.50;99.90;;;;;;5035332;28;20675;-75
2022/06/10 07:17:33;;;;;;;7.60;3.03;;;15.60;99.90;;;;;;5036794;28;20285;-75
2022/06/10 07:20:04;;;;;;;9.17;3.17;;;15.60;99.90;;;;;;5036504;28;20662;-74
2022/06/10 07:22:30;;;;;;;6.40;2.77;;;15.70;99.90;;;;;;5036367;28;20677;-74
2022/06/10 07:24:55;;;;;;;11.57;2.90;;;15.80;99.90;;;;;;5034969;28;20176;-75
2022/06/10 07:27:22;;;;;;;5.70;2.73;;;15.90;99.90;;;;;;5036511;28;20168;-75
2022/06/10 07:29:48;;;;;;;7.87;2.67;;;15.90;99.90;;;;;;5036588;28;20177;-74
2022/06/10 07:32:13;;;;;;;6.30;2.70;;;16.00;99.90;;;;;;5036567;28;20183;-75
2022/06/10 07:34:39;;;;;;;7.53;2.90;;;16.10;99.90;;;;;;5036142;28;20184;-75
2022/06/10 07:37:04;;;;;;;11.57;2.73;;;16.20;99.90;;;;;;5034908;28;20184;-75
2022/06/10 07:39:32;;;;;;;7.90;2.37;;;16.20;99.90;;;;;;5036151;28;20204;-75
2022/06/10 07:42:00;;;;;;;7.07;2.27;;;16.30;99.90;;;;;;5034734;28;20208;-75
2022/06/10 07:44:31;;;;;;;11.13;2.60;;;16.40;99.90;;;;;;5034752;28;20185;-75
2022/06/10 07:46:59;;;;;;;5.20;2.00;;;16.50;99.90;;;;;;5036223;28;20193;-74
2022/06/10 07:49:25;;;;;;;9.20;2.10;;;16.60;99.90;;;;;;5034645;28;20196;-75
2022/06/10 07:51:51;;;;;;;5.97;1.80;;;16.60;99.90;;;;;;5035899;28;20547;-74
2022/06/10 07:54:17;;;;;;;6.10;1.87;;;16.70;99.90;;;;;;5034553;28;20189;-74
2022/06/10 07:56:42;;;;;;;7.30;1.90;;;16.70;99.90;;;;;;5034447;28;20195;-75
2022/06/10 07:59:08;;;;;;;7.20;1.53;;;17.00;99.90;;;;;;5036060;28;20188;-74
2022/06/10 08:01:34;;;;;;;7.57;1.70;;;17.10;99.90;;;;;;5034566;28;20616;-74
2022/06/10 08:04:00;;;;;;;7.50;1.87;;;17.20;99.90;;;;;;5035663;28;20302;-74
2022/06/10 08:06:29;;;;;;;7.23;2.00;;;17.30;99.90;;;;;;5035678;28;20192;-74
2022/06/10 08:08:55;;;;;;;5.97;1.60;;;17.50;99.90;;;;;;5034323;28;20190;-74
2022/06/10 08:11:21;;;;;;;6.73;1.70;;;17.60;99.90;;;;;;5035789;28;20180;-74
2022/06/10 08:13:47;;;;;;;5.43;1.30;;;17.70;99.90;;;;;;5035770;28;20646;-74
2022/06/10 08:16:14;;;;;;;4.80;1.57;;;17.80;99.90;;;;;;5034132;28;20674;-74
2022/06/10 08:18:40;;;;;;;6.67;1.60;;;17.90;99.90;;;;;;5035732;28;20172;-75
2022/06/10 08:23:50;;;;;;;4.67;1.47;;;18.00;99.90;;;;;;5035645;28;20248;-74
2022/06/10 08:26:17;;;;;;;6.23;1.30;;;18.10;99.90;;;;;;5036357;28;20288;-75
2022/06/10 08:28:45;;;;;;;5.13;1.53;;;18.10;99.90;;;;;;5033977;28;20543;-75
2022/06/10 08:31:11;;;;;;;7.50;1.40;;;18.20;1.00;;;;;;5035192;28;20200;-75
2022/06/10 08:33:37;;;;;;;7.33;1.77;;;18.30;1.30;;;;;;5033918;28;20176;-75
2022/06/10 08:36:04;;;;;;;4.20;1.70;;;18.20;1.00;;;;;;5034817;28;20201;-74
2022/06/10 08:38:30;;;;;;;8.03;1.37;;;18.30;1.00;;;;;;5034809;28;20665;-75
2022/06/10 08:41:27;;;;;;;7.10;1.50;;;18.30;51.70;;;;;;5034644;28;20200;-74
2022/06/10 08:44:05;;;;;;;7.23;1.30;;;18.20;99.90;;;;;;5032637;28;20207;-73
2022/06/10 08:47:06;;;;;;;6.73;1.30;;;18.20;99.90;;;;;;5033392;28;20231;-74
2022/06/10 08:49:54;;;;;;;4.67;1.27;;;17.90;99.90;;;;;;5033455;28;20172;-75
2022/06/10 08:52:43;;;;;;;6.93;1.40;;;17.80;1.00;;;;;;5034991;28;20614;-75
2022/06/10 08:55:36;;;;;;;3.50;1.10;;;17.70;91.80;;;;;;5033247;28;20223;-74
2022/06/10 08:58:09;;;;;;;6.07;1.37;;;17.60;99.90;;;;;;5034569;28;20164;-75
2022/06/10 09:00:40;;;;;;;5.17;1.33;;;17.50;99.90;;;;;;5034500;28;20164;-74
2022/06/10 09:03:16;;;;;;;5.37;1.23;;;17.50;99.90;;;;;;5034775;28;20183;-74
2022/06/10 09:05:55;;;;;;;5.17;1.30;;;17.50;99.90;;;;;;5034468;28;20188;-75
2022/06/10 09:08:24;;;;;;;5.77;1.93;;;17.50;99.90;;;;;;5034585;28;20676;-74
2022/06/10 09:11:00;;;;;;;7.47;1.27;;;17.30;99.90;;;;;;5034311;28;20173;-76
2022/06/10 09:13:41;;;;;;;5.63;1.37;;;17.30;99.90;;;;;;5034039;28;20668;-76
2022/06/10 09:16:29;;;;;;;9.17;1.40;;;17.30;99.90;;;;;;5034328;28;20246;-75
2022/06/10 09:19:06;;;;;;;8.53;1.30;;;17.30;99.90;;;;;;5034625;28;20553;-76
2022/06/10 09:21:52;;;;;;;7.33;1.73;;;17.30;99.90;;;;;;5034178;28;20184;-76
2022/06/10 09:24:36;;;;;;;6.73;1.83;;;17.40;99.90;;;;;;5034029;28;20175;-76
2022/06/10 09:27:12;;;;;;;6.43;1.47;;;17.40;99.90;;;;;;5033854;28;20263;-75
2022/06/10 09:29:38;;;;;;;7.17;1.60;;;17.40;99.90;;;;;;5032661;28;20778;-76
2022/06/10 09:32:07;;;;;;;3.87;1.20;;;17.60;99.90;;;;;;5032573;28;20181;-76
2022/06/10 09:34:59;;;;;;;8.47;1.60;;;17.70;99.90;;;;;;5034033;28;20673;-75
2022/06/10 09:37:47;;;;;;;8.13;1.00;;;17.80;99.90;;;;;;5034114;28;20168;-76
2022/06/10 09:40:37;;;;;;;4.13;1.07;;;17.90;99.90;;;;;;5033275;28;20172;-75
2022/06/10 09:43:43;;;;;;;5.73;1.10;;;18.00;99.90;;;;;;5033676;28;20181;-76
2022/06/10 09:46:27;;;;;;;5.83;1.40;;;18.10;99.90;;;;;;5016613;28;20243;-76
2022/06/10 09:49:12;;;;;;;2.70;1.20;;;18.10;99.90;;;;;;5033629;28;20155;-75
2022/06/10 09:51:37;;;;;;;7.37;1.37;;;18.30;99.90;;;;;;5032286;28;20180;-75
2022/06/10 09:54:19;;;;;;;8.37;1.60;;;18.40;99.90;;;;;;5033759;28;20175;-76
2022/06/10 09:56:56;;;;;;;5.50;1.17;;;18.50;31.90;;;;;;5033367;28;20188;-75
2022/06/10 09:59:45;;;;;;;7.33;1.30;;;18.70;56.70;;;;;;5032159;28;20168;-76
2022/06/10 10:02:50;;;;;;;7.10;1.90;;;18.80;1.00;;;;;;5031896;28;20200;-76
2022/06/10 10:05:43;;;;;;;6.27;1.53;;;19.00;1.00;;;;;;5012707;28;20294;-75
2022/06/10 10:08:30;;;;;;;5.63;1.37;;;19.30;1.00;;;;;;5033263;28;20631;-74
2022/06/10 10:11:31;;;;;;;2.97;0.90;;;19.50;99.90;;;;;;5033463;28;20184;-76
2022/06/10 10:14:32;;;;;;;6.37;0.90;;;19.60;99.90;;;;;;4999912;28;20188;-75
2022/06/10 10:17:26;;;;;;;3.00;0.80;;;19.80;99.90;;;;;;5033380;28;20191;-75
2022/06/10 10:20:23;;;;;;;1.50;0.77;;;19.90;1.00;;;;;;5033091;28;20172;-74
2022/06/10 10:23:05;;;;;;;4.80;1.00;;;20.00;1.00;;;;;;5032787;28;20218;-76
2022/06/10 10:25:31;;;;;;;3.90;1.20;;;20.20;99.90;;;;;;5031364;28;20212;-75
2022/06/10 10:27:57;;;;;;;1.90;0.80;;;20.10;99.90;;;;;;5033021;28;20168;-75
2022/06/10 10:30:41;;;;;;;2.90;0.93;;;20.10;1.00;;;;;;5033244;28;20254;-76
2022/06/10 10:33:11;;;;;;;4.33;0.97;;;20.20;99.90;;;;;;5033018;28;20167;-76
2022/06/10 10:35:45;;;;;;;6.03;2.03;;;20.30;1.00;;;;;;5033111;28;20280;-76
2022/06/10 10:38:14;;;;;;;6.13;1.60;;;20.30;99.90;;;;;;5031589;28;20176;-75
2022/06/10 10:40:44;;;;;;;5.80;1.63;;;20.30;1.00;;;;;;5033052;28;20535;-76
2022/06/10 10:43:18;;;;;;;5.10;1.40;;;20.30;99.90;;;;;;5032828;28;20184;-76
2022/06/10 10:46:03;;;;;;;2.60;1.40;;;20.30;1.00;;;;;;5033069;28;20203;-75
2022/06/10 10:48:36;;;;;;;5.00;1.60;;;20.40;6.10;;;;;;5033163;28;20180;-75
2022/06/10 10:51:11;;;;;;;3.20;1.57;;;20.50;1.00;;;;;;5033161;28;20168;-76
2022/06/10 10:53:41;;;;;;;4.60;1.50;;;20.60;1.00;;;;;;5033128;28;20160;-76
2022/06/10 10:56:09;;;;;;;4.00;1.47;;;20.70;99.90;;;;;;5031540;28;20199;-75
2022/06/10 10:58:40;;;;;;;7.67;1.23;;;20.80;99.90;;;;;;5031535;28;20250;-75
2022/06/10 11:01:09;;;;;;;4.70;1.30;;;21.00;99.90;;;;;;5031418;28;20685;-75
2022/06/10 11:03:44;;;;;;;6.70;1.20;;;21.00;99.90;;;;;;5031366;28;20176;-76
2022/06/10 11:06:24;;;;;;;5.63;1.37;;;21.00;1.00;;;;;;5031394;28;20220;-76
2022/06/10 11:08:59;;;;;;;7.03;1.50;;;21.00;99.50;;;;;;5032949;28;20519;-76
2022/06/10 11:11:35;;;;;;;2.70;1.13;;;21.00;1.00;;;;;;5032574;28;20172;-76
2022/06/10 11:14:05;;;;;;;3.13;1.27;;;21.00;99.90;;;;;;5031251;28;20650;-75
2022/06/10 11:16:40;;;;;;;3.20;1.17;;;21.00;99.90;;;;;;5032449;28;20189;-75
2022/06/10 11:19:38;;;;;;;3.00;1.27;;;21.10;99.90;;;;;;5031245;28;20661;-75
2022/06/10 11:22:03;;;;;;;3.23;1.30;;;21.20;1.00;;;;;;5032473;28;20181;-76
2022/06/10 11:24:42;;;;;;;5.67;2.50;;;21.20;99.90;;;;;;5032425;28;20160;-76
2022/06/10 11:27:38;;;;;;;6.07;1.50;;;21.30;1.00;;;;;;5032608;28;20665;-76
2022/06/10 11:30:16;;;;;;;11.23;2.77;;;21.30;1.00;;;;;;5020302;28;20191;-76
2022/06/10 11:33:26;;;;;;;4.67;2.10;;;21.40;99.90;;;;;;5031153;28;20251;-76
2022/06/10 11:36:13;;;;;;;5.33;2.00;;;21.30;1.00;;;;;;5026924;28;20686;-75
2022/06/10 11:39:17;;;;;;;6.50;2.10;;;21.40;1.00;;;;;;5036039;28;20188;-76
2022/06/10 11:41:58;;;;;;;6.27;1.60;;;21.40;1.00;;;;;;5032977;28;20212;-75
2022/06/10 11:44:27;;;;;;;4.33;1.57;;;21.40;99.90;;;;;;5036174;28;20634;-76
2022/06/10 11:47:05;;;;;;;7.40;1.67;;;21.50;99.90;;;;;;5035880;28;20279;-76
2022/06/10 11:49:41;;;;;;;5.80;1.30;;;21.70;1.00;;;;;;5035844;28;20175;-76
2022/06/10 11:52:45;;;;;;;2.97;1.00;;;21.90;1.00;;;;;;5036785;28;20586;-76
2022/06/10 11:55:17;;;;;;;4.97;1.40;;;22.10;99.90;;;;;;5035230;28;20773;-76
2022/06/10 12:00:58;;;;;;;5.47;1.23;;;22.10;1.00;;;;;;5035911;28;20163;-77
2022/06/10 12:03:33;;;;;;;8.13;1.60;;;22.10;1.00;;;;;;5034454;28;20642;-76
2022/06/10 12:05:58;;;;;;;5.10;1.40;;;22.20;99.90;;;;;;5034232;28;20199;-76
2022/06/10 12:08:41;;;;;;;7.37;1.67;;;22.20;1.00;;;;;;5035562;28;20657;-76
2022/06/10 12:11:24;;;;;;;5.03;1.00;;;22.40;99.90;;;;;;5034234;28;20604;-76
2022/06/10 12:14:14;;;;;;;7.87;1.33;;;22.40;1.00;;;;;;5034193;28;20168;-76
2022/06/10 12:16:45;;;;;;;4.67;1.30;;;22.40;99.90;;;;;;5029376;28;20278;-76
2022/06/10 12:19:20;;;;;;;4.37;1.50;;;22.50;99.90;;;;;;5035575;28;20591;-76
2022/06/10 12:21:45;;;;;;;3.10;1.00;;;22.60;1.00;;;;;;5035249;28;20646;-76
2022/06/10 12:24:17;;;;;;;4.17;1.37;;;22.70;1.00;;;;;;5033992;28;20176;-76
2022/06/10 12:26:56;;;;;;;4.13;1.50;;;22.70;1.00;;;;;;5034976;28;20297;-75
2022/06/10 12:29:41;;;;;;;9.00;2.20;;;22.70;99.90;;;;;;5035476;28;20224;-76
2022/06/10 12:32:12;;;;;;;5.33;1.27;;;22.80;99.90;;;;;;5035709;28;20618;-76
2022/06/10 12:34:50;;;;;;;8.83;1.43;;;22.80;99.90;;;;;;5033710;28;20176;-76
2022/06/10 12:37:40;;;;;;;5.27;1.37;;;22.90;33.20;;;;;;5033810;28;20179;-76
2022/06/10 12:40:25;;;;;;;7.17;1.63;;;23.00;99.90;;;;;;5035217;28;20531;-76
2022/06/10 12:42:57;;;;;;;7.40;1.60;;;23.00;1.00;;;;;;5034833;28;20194;-75
2022/06/10 12:45:30;;;;;;;5.93;1.67;;;23.00;1.00;;;;;;5034840;28;20216;-76
2022/06/10 12:47:59;;;;;;;8.80;2.00;;;23.10;1.00;;;;;;5034326;28;20149;-76
2022/06/10 12:50:31;;;;;;;4.47;1.40;;;23.20;1.00;;;;;;5034806;28;20172;-76
2022/06/10 12:53:29;;;;;;;2.07;1.20;;;23.20;99.90;;;;;;5035068;28;20153;-76
2022/06/10 12:55:57;;;;;;;5.13;1.60;;;23.30;1.00;;;;;;5033363;28;20574;-76
2022/06/10 12:58:38;;;;;;;6.47;1.30;;;23.30;99.90;;;;;;5033368;28;20180;-76
2022/06/10 13:01:18;;;;;;;7.37;1.57;;;23.20;1.00;;;;;;5034601;28;20199;-76
2022/06/10 13:03:46;;;;;;;3.93;1.10;;;23.30;1.00;;;;;;5033307;28;20263;-76
2022/06/10 13:06:46;;;;;;;5.20;1.60;;;23.40;1.00;;;;;;5033222;28;20188;-76
2022/06/10 13:09:12;;;;;;;3.10;1.20;;;23.40;99.90;;;;;;5033250;28;20195;-76
2022/06/10 13:11:56;;;;;;;4.80;1.03;;;23.40;1.00;;;;;;5034573;28;20171;-75
2022/06/10 13:14:33;;;;;;;1.97;0.83;;;23.30;1.00;;;;;;5032992;28;20183;-76
2022/06/10 13:16:58;;;;;;;4.90;1.47;;;23.40;99.90;;;;;;5032950;28;20200;-76
2022/06/10 13:19:35;;;;;;;6.30;1.40;;;23.30;1.00;;;;;;5033331;28;20700;-76
2022/06/10 13:22:37;;;;;;;8.10;1.20;;;23.40;1.00;;;;;;5034229;28;20188;-76
2022/06/10 13:25:03;;;;;;;6.53;1.27;;;23.30;1.00;;;;;;4973149;28;20288;-76
2022/06/10 13:27:32;;;;;;;4.27;1.33;;;23.40;1.00;;;;;;5022033;28;20625;-76
2022/06/10 13:30:31;;;;;;;2.57;0.93;;;23.50;1.00;;;;;;5032621;28;20520;-76
2022/06/10 13:33:05;;;;;;;5.27;2.07;;;23.50;1.00;;;;;;5034046;28;20557;-76